createdAt,value
2023-03-06T05:13:07.852Z,95989.16
2023-03-06T05:15:13.635Z,95982.59
2023-03-06T05:17:16.415Z,95986.19
2023-03-06T05:19:19.269Z,95985.34
2023-03-06T05:21:22.075Z,95989.06
2023-03-06T05:23:24.917Z,95989.38
2023-03-06T05:25:27.893Z,95987.38
2023-03-06T05:27:30.650Z,95985.84
2023-03-06T05:29:34.756Z,95993.94
2023-03-06T05:31:37.716Z,95997.84
2023-03-06T05:33:40.574Z,95995.63
2023-03-06T05:35:47.094Z,96002.09
2023-03-06T05:37:50.447Z,95999.94
2023-03-06T05:39:53.708Z,96002.38
2023-03-06T05:41:56.612Z,96003.59
2023-03-06T05:43:59.919Z,96006.84
2023-03-06T05:46:06.285Z,96004.03
2023-03-06T05:48:09.367Z,96010.13
2023-03-06T05:50:13.979Z,96003.19
2023-03-06T05:52:17.430Z,95997.56
2023-03-06T05:54:20.170Z,95992.50
2023-03-06T05:56:23.375Z,95989.69
2023-03-06T05:58:27.276Z,95997.19
2023-03-06T06:00:30.232Z,95989.28
2023-03-06T06:02:34.403Z,95991.72
2023-03-06T06:04:37.450Z,95995.97
2023-03-06T06:06:40.334Z,95990.09
2023-03-06T06:08:43.411Z,95995.97
2023-03-06T06:10:46.389Z,95995.97
2023-03-06T06:12:49.505Z,95995.16
2023-03-06T06:14:52.290Z,95995.38
2023-03-06T06:16:55.670Z,96006.69
2023-03-06T06:18:59.933Z,95996.19
2023-03-06T06:21:05.810Z,95994.16
2023-03-06T06:23:08.935Z,96010.56
2023-03-06T06:25:11.702Z,96003.50
2023-03-06T06:27:14.733Z,96001.03
2023-03-06T06:29:17.577Z,95996.78
2023-03-06T06:31:20.331Z,96008.94
2023-03-06T06:33:23.708Z,96005.94
2023-03-06T06:35:28.298Z,95998.03
2023-03-06T06:37:31.596Z,96010.19
2023-03-06T06:39:34.938Z,95996.44
2023-03-06T06:42:09.658Z,96001.47
2023-03-06T06:44:00.886Z,96007.56
2023-03-06T06:46:28.289Z,96017.28
2023-03-06T06:48:26.703Z,96004.13
2023-03-06T06:50:30.866Z,96011.63
2023-03-06T06:52:33.949Z,96018.28
2023-03-06T06:54:36.868Z,96019.72
2023-03-06T06:56:40.004Z,96023.81
2023-03-06T06:58:43.029Z,96017.53
2023-03-06T07:00:45.983Z,96022.41
2023-03-06T07:02:51.166Z,96026.47
2023-03-06T07:05:03.800Z,96021.00
2023-03-06T07:07:09.136Z,96026.31
2023-03-06T07:09:13.118Z,96036.25
2023-03-06T07:11:18.691Z,96020.09
2023-03-06T07:13:21.755Z,96016.03
2023-03-06T07:15:26.956Z,96016.66
2023-03-06T07:17:29.790Z,96011.63
2023-03-06T07:19:32.706Z,96013.66
2023-03-06T07:21:35.844Z,96019.34
2023-03-06T07:23:40.354Z,96011.69
2023-03-06T07:25:43.318Z,96010.88
2023-03-06T07:27:52.702Z,96014.97
2023-03-06T07:29:59.073Z,96013.34
2023-03-06T07:32:02.836Z,96005.28
2023-03-06T07:34:07.928Z,96015.41
2023-03-06T07:36:13.860Z,96018.22
2023-03-06T07:38:16.902Z,96022.25
2023-03-06T07:40:22.423Z,96018.41
2023-03-06T07:42:25.411Z,96019.38
2023-03-06T07:44:28.650Z,96019.41
2023-03-06T07:46:31.643Z,96019.84
2023-03-06T07:48:35.309Z,96021.31
2023-03-06T07:50:38.982Z,96028.00
2023-03-06T07:52:42.138Z,96017.03
2023-03-06T07:54:45.007Z,96019.06
2023-03-06T07:56:56.940Z,96020.28
2023-03-06T07:58:59.781Z,96021.09
2023-03-06T08:01:06.546Z,96021.31
2023-03-06T08:03:10.830Z,96027.38
2023-03-06T08:05:16.177Z,96024.09
2023-03-06T08:07:19.085Z,96030.00
2023-03-06T08:09:22.291Z,96032.25
2023-03-06T08:11:26.773Z,96031.44
2023-03-06T08:13:30.968Z,96032.03
2023-03-06T08:15:34.166Z,96034.06
2023-03-06T08:17:37.347Z,96032.06
2023-03-06T08:19:40.215Z,96021.91
2023-03-06T08:21:43.219Z,96028.41
2023-03-06T08:23:48.116Z,96036.50
2023-03-06T08:25:57.733Z,96030.63
2023-03-06T08:28:01.025Z,96034.91
2023-03-06T08:30:06.529Z,96031.66
2023-03-06T08:32:12.551Z,96034.91
2023-03-06T08:34:18.227Z,96039.78
2023-03-06T08:36:21.428Z,96041.22
2023-03-06T08:38:24.300Z,96038.75
2023-03-06T08:40:30.376Z,96042.03
2023-03-06T08:42:33.650Z,96041.84
2023-03-06T08:44:36.556Z,96045.88
2023-03-06T08:46:40.809Z,96043.84
2023-03-06T08:48:43.843Z,96041.63
2023-03-06T08:50:46.997Z,96037.81
2023-03-06T08:52:49.869Z,96041.03
2023-03-06T08:54:52.701Z,96039.63
2023-03-06T08:56:55.620Z,96041.66
2023-03-06T08:59:00.669Z,96040.06
2023-03-06T09:01:04.161Z,96039.84
2023-03-06T09:03:08.866Z,96040.66
2023-03-06T09:05:12.465Z,96042.28
2023-03-06T09:07:15.449Z,96039.03
2023-03-06T09:09:18.465Z,96038.25
2023-03-06T09:11:23.260Z,96037.41
2023-03-06T09:13:26.144Z,96030.53
2023-03-06T09:15:29.129Z,96039.03
2023-03-06T09:17:32.038Z,96039.25
2023-03-06T09:19:36.213Z,96039.25
2023-03-06T09:21:39.370Z,96036.22
2023-03-06T09:23:42.181Z,96035.81
2023-03-06T09:25:45.994Z,96045.97
2023-03-06T09:27:58.311Z,96043.72
2023-03-06T09:30:09.714Z,96047.00
2023-03-06T09:32:12.767Z,96045.75
2023-03-06T09:34:16.143Z,96046.34
2023-03-06T09:36:22.326Z,96047.97
2023-03-06T09:38:27.248Z,96047.00
2023-03-06T09:40:46.723Z,96045.34
2023-03-06T09:42:49.589Z,96048.38
2023-03-06T09:44:56.161Z,96045.75
2023-03-06T09:47:20.038Z,96044.53
2023-03-06T09:49:47.698Z,96037.44
2023-03-06T09:52:03.170Z,96032.78
2023-03-06T09:54:13.941Z,96040.06
2023-03-06T09:56:20.605Z,96042.31
2023-03-06T09:58:25.430Z,96038.66
2023-03-06T10:00:33.858Z,96034.78
2023-03-06T10:02:40.194Z,96034.63
2023-03-06T10:04:45.173Z,96035.41
2023-03-06T10:06:56.831Z,96030.75
2023-03-06T10:09:03.486Z,96031.34
2023-03-06T10:11:14.391Z,96037.22
2023-03-06T10:13:26.132Z,96027.69
2023-03-06T10:15:33.500Z,96029.31
2023-03-06T10:17:41.635Z,96028.09
2023-03-06T10:19:45.088Z,96024.66
2023-03-06T10:21:57.011Z,96019.59
2023-03-06T10:24:08.612Z,96020.19
2023-03-06T10:26:16.879Z,96024.66
2023-03-06T10:28:25.961Z,96018.34
2023-03-06T10:30:40.396Z,96019.00
2023-03-06T10:32:51.213Z,96010.25
2023-03-06T10:34:57.733Z,96013.72
2023-03-06T10:37:12.902Z,96013.09
2023-03-06T10:39:19.767Z,96019.97
2023-03-06T10:41:27.564Z,96010.66
2023-03-06T10:43:30.742Z,96019.56
2023-03-06T10:45:48.507Z,96021.81
2023-03-06T10:48:09.625Z,96014.91
2023-03-06T10:50:25.268Z,96008.22
2023-03-06T10:52:34.384Z,96009.66
2023-03-06T10:54:39.323Z,96005.56
2023-03-06T10:56:44.666Z,96010.25
2023-03-06T10:58:47.911Z,96004.38
2023-03-06T11:01:02.708Z,96002.13
2023-03-06T11:03:14.499Z,96001.09
2023-03-06T11:05:21.299Z,95999.50
2023-03-06T11:07:26.101Z,95993.19
2023-03-06T11:09:30.401Z,95994.81
2023-03-06T11:11:37.690Z,96002.53
2023-03-06T11:13:42.986Z,95994.38
2023-03-06T11:15:57.565Z,95995.41
2023-03-06T11:18:04.191Z,95992.56
2023-03-06T11:20:41.278Z,95982.22
2023-03-06T11:22:56.287Z,95993.19
2023-03-06T11:25:00.839Z,95989.94
2023-03-06T11:27:15.875Z,95986.31
2023-03-06T11:29:40.610Z,95983.84
2023-03-06T11:31:49.226Z,95980.38
2023-03-06T11:33:56.391Z,95981.59
2023-03-06T11:36:05.676Z,95980.19
2023-03-06T11:38:15.645Z,95979.16
2023-03-06T11:40:25.685Z,95978.13
2023-03-06T11:42:33.603Z,95967.16
2023-03-06T11:44:47.573Z,95960.25
2023-03-06T11:46:54.998Z,95957.78
2023-03-06T11:49:05.574Z,95954.97
2023-03-06T11:51:15.616Z,95945.81
2023-03-06T11:53:21.200Z,95953.31
2023-03-06T11:55:40.145Z,95948.03
2023-03-06T11:57:51.677Z,95945.19
2023-03-06T12:00:08.636Z,95940.72
2023-03-06T12:02:28.088Z,95944.38
2023-03-06T12:04:51.221Z,95930.16
2023-03-06T12:07:07.532Z,95933.38
2023-03-06T12:09:30.226Z,95933.59
2023-03-06T12:11:43.073Z,95926.50
2023-03-06T12:14:17.727Z,95925.06
2023-03-06T12:16:39.670Z,95915.13
2023-03-06T12:18:50.977Z,95913.66
2023-03-06T12:21:04.104Z,95914.25
2023-03-06T12:23:18.411Z,95914.25
2023-03-06T12:25:31.212Z,95904.50
2023-03-06T12:27:45.684Z,95895.16
2023-03-06T12:30:10.368Z,95893.09
2023-03-06T12:32:23.262Z,95888.22
2023-03-06T12:34:40.493Z,95887.81
2023-03-06T12:36:54.792Z,95889.22
2023-03-06T12:39:08.293Z,95876.81
2023-03-06T12:41:23.413Z,95880.19
2023-03-06T12:44:04.798Z,95872.28
2023-03-06T12:46:12.702Z,95872.28
2023-03-06T12:48:19.590Z,95866.63
2023-03-06T12:50:26.505Z,95867.22
2023-03-06T12:52:32.480Z,95864.56
2023-03-06T12:54:38.898Z,95868.66
2023-03-06T12:56:43.277Z,95871.09
2023-03-06T12:58:52.986Z,95867.44
2023-03-06T13:01:09.694Z,95865.16
2023-03-06T13:03:20.113Z,95852.53
2023-03-06T13:05:56.720Z,95849.28
2023-03-06T13:08:20.182Z,95845.84
2023-03-06T13:10:28.013Z,95851.50
2023-03-06T13:12:49.488Z,95853.69
2023-03-06T13:14:55.432Z,95846.56
2023-03-06T13:17:26.984Z,95843.31
2023-03-06T13:19:29.956Z,95840.44
2023-03-06T13:21:48.248Z,95845.50
2023-03-06T13:23:53.232Z,95835.53
2023-03-06T13:25:57.192Z,95832.66
2023-03-06T13:28:03.225Z,95831.41
2023-03-06T13:30:24.322Z,95826.97
2023-03-06T13:32:35.290Z,95827.34
2023-03-06T13:34:39.989Z,95839.09
2023-03-06T13:36:42.921Z,95835.84
2023-03-06T13:39:10.416Z,95833.44
2023-03-06T13:41:44.360Z,95835.84
2023-03-06T13:43:48.246Z,95833.81
2023-03-06T13:45:51.647Z,95838.44
2023-03-06T13:48:24.559Z,95829.50
2023-03-06T13:50:37.645Z,95826.03
2023-03-06T13:52:52.019Z,95819.50
2023-03-06T13:55:06.744Z,95827.22
2023-03-06T13:57:22.462Z,95814.81
2023-03-06T14:00:03.212Z,95819.88
2023-03-06T14:02:34.348Z,95805.63
2023-03-06T14:04:53.598Z,95810.28
2023-03-06T14:07:19.521Z,95812.47
2023-03-06T14:09:29.453Z,95803.53
2023-03-06T14:11:33.689Z,95807.34
2023-03-06T14:13:47.109Z,95804.28
2023-03-06T14:15:52.888Z,95804.84
2023-03-06T14:18:01.526Z,95805.44
2023-03-06T14:20:15.048Z,95805.00
2023-03-06T14:22:23.301Z,95805.81
2023-03-06T14:24:34.780Z,95799.47
2023-03-06T14:26:43.183Z,95812.34
2023-03-06T14:28:54.897Z,95798.69
2023-03-06T14:30:59.944Z,95800.09
2023-03-06T14:33:11.918Z,95794.59
2023-03-06T14:35:27.016Z,95800.91
2023-03-06T14:37:32.020Z,95792.59
2023-03-06T14:39:37.442Z,95791.94
2023-03-06T14:41:40.836Z,95782.53
2023-03-06T14:43:43.719Z,95782.06
2023-03-06T14:45:51.792Z,95779.25
2023-03-06T14:47:54.618Z,95779.59
2023-03-06T14:50:25.092Z,95781.22
2023-03-06T14:52:28.110Z,95784.44
2023-03-06T14:54:33.659Z,95773.84
2023-03-06T14:56:41.264Z,95777.06
2023-03-06T14:58:51.300Z,95777.06
2023-03-06T15:00:56.585Z,95777.06
2023-03-06T15:02:59.687Z,95767.69
2023-03-06T15:05:07.562Z,95774.59
2023-03-06T15:07:17.096Z,95777.38
2023-03-06T15:09:27.876Z,95770.63
2023-03-06T15:11:52.020Z,95766.34
2023-03-06T15:14:02.964Z,95763.03
2023-03-06T15:16:09.142Z,95767.06
2023-03-06T15:18:30.959Z,95773.97
2023-03-06T15:20:43.601Z,95767.06
2023-03-06T15:22:51.500Z,95768.09
2023-03-06T15:24:56.385Z,95768.91
2023-03-06T15:27:02.884Z,95771.91
2023-03-06T15:29:23.083Z,95766.84
2023-03-06T15:31:28.134Z,95771.56
2023-03-06T15:33:31.320Z,95772.59
2023-03-06T15:35:38.198Z,95772.59
2023-03-06T15:37:41.430Z,95772.38
2023-03-06T15:39:46.416Z,95774.44
2023-03-06T15:41:49.480Z,95772.00
2023-03-06T15:43:52.425Z,95767.75
2023-03-06T15:46:00.733Z,95768.78
2023-03-06T15:48:03.767Z,95771.44
2023-03-06T15:50:14.712Z,95772.81
2023-03-06T15:52:17.561Z,95769.13
2023-03-06T15:54:20.674Z,95767.53
2023-03-06T15:56:29.958Z,95765.91
2023-03-06T15:58:35.313Z,95772.81
2023-03-06T16:00:40.960Z,95772.81
2023-03-06T16:02:48.343Z,95770.97
2023-03-06T16:04:54.408Z,95770.75
2023-03-06T16:06:57.343Z,95770.75
2023-03-06T16:09:00.785Z,95780.06
2023-03-06T16:11:06.633Z,95775.00
2023-03-06T16:13:15.148Z,95779.28
2023-03-06T16:15:20.906Z,95778.00
2023-03-06T16:17:24.083Z,95776.16
2023-03-06T16:19:28.247Z,95772.53
2023-03-06T16:21:31.254Z,95780.47
2023-03-06T16:23:38.705Z,95779.84
2023-03-06T16:25:43.155Z,95781.47
2023-03-06T16:27:55.318Z,95780.47
2023-03-06T16:29:59.520Z,95782.25
2023-03-06T16:32:02.678Z,95780.06
2023-03-06T16:34:05.599Z,95790.88
2023-03-06T16:36:13.487Z,95792.16
2023-03-06T16:38:16.680Z,95788.69
2023-03-06T16:40:23.137Z,95795.03
2023-03-06T16:42:26.290Z,95799.72
2023-03-06T16:44:29.131Z,95792.78
2023-03-06T16:46:33.469Z,95796.47
2023-03-06T16:48:36.406Z,95792.00
2023-03-06T16:50:40.769Z,95798.09
2023-03-06T16:52:43.762Z,95794.84
2023-03-06T16:54:46.658Z,95810.72
2023-03-06T16:56:52.016Z,95808.09
2023-03-06T16:58:54.829Z,95809.94
2023-03-06T17:00:58.168Z,95811.19
2023-03-06T17:03:03.105Z,95812.22
2023-03-06T17:05:07.016Z,95817.28
2023-03-06T17:07:10.241Z,95811.63
2023-03-06T17:09:14.293Z,95815.31
2023-03-06T17:11:17.914Z,95822.63
2023-03-06T17:13:23.115Z,95818.25
2023-03-06T17:15:26.190Z,95827.84
2023-03-06T17:17:29.130Z,95837.47
2023-03-06T17:19:33.525Z,95835.69
2023-03-06T17:21:38.442Z,95846.94
2023-03-06T17:23:41.317Z,95842.31
2023-03-06T17:25:44.069Z,95843.31
2023-03-06T17:27:46.973Z,95853.47
2023-03-06T17:29:49.873Z,95865.09
2023-03-06T17:31:52.708Z,95861.81
2023-03-06T17:34:00.166Z,95872.25
2023-03-06T17:36:04.743Z,95854.81
2023-03-06T17:38:07.837Z,95865.84
2023-03-06T17:40:11.755Z,95861.81
2023-03-06T17:42:14.603Z,95862.59
2023-03-06T17:44:17.609Z,95872.81
2023-03-06T17:46:20.488Z,95878.72
2023-03-06T17:48:23.277Z,95883.06
2023-03-06T17:50:26.137Z,95881.03
2023-03-06T17:52:30.318Z,95883.31
2023-03-06T17:54:33.150Z,95888.59
2023-03-06T17:56:37.851Z,95897.13
2023-03-06T17:58:40.941Z,95895.28
2023-03-06T18:00:43.767Z,95905.03
2023-03-06T18:02:46.911Z,95888.38
2023-03-06T18:04:49.942Z,95895.72
2023-03-06T18:06:53.874Z,95893.28
2023-03-06T18:08:59.147Z,95905.91
2023-03-06T18:11:03.564Z,95906.72
2023-03-06T18:13:06.400Z,95903.28
2023-03-06T18:15:10.631Z,95910.38
2023-03-06T18:17:13.483Z,95911.41
2023-03-06T18:19:16.476Z,95916.47
2023-03-06T18:21:19.897Z,95918.91
2023-03-06T18:23:23.408Z,95922.78
2023-03-06T18:25:27.645Z,95925.84
2023-03-06T18:27:32.974Z,95925.84
2023-03-06T18:29:35.775Z,95922.59
2023-03-06T18:31:42.866Z,95921.81
2023-03-06T18:33:46.293Z,95922.25
2023-03-06T18:35:49.219Z,95929.38
2023-03-06T18:37:52.077Z,95936.88
2023-03-06T18:39:55.121Z,95938.91
2023-03-06T18:41:59.350Z,95936.69
2023-03-06T18:44:03.350Z,95941.78
2023-03-06T18:46:07.174Z,95944.22
2023-03-06T18:48:10.608Z,95942.59
2023-03-06T18:50:17.361Z,95944.22
2023-03-06T18:52:20.409Z,95953.78
2023-03-06T18:54:24.350Z,95958.44
2023-03-06T18:56:27.380Z,95961.28
2023-03-06T18:58:32.387Z,95962.09
2023-03-06T19:00:35.368Z,95964.56
2023-03-06T19:02:38.294Z,95967.41
2023-03-06T19:04:41.125Z,95969.03
2023-03-06T19:06:43.977Z,95967.44
2023-03-06T19:08:46.842Z,95964.78
2023-03-06T19:10:50.147Z,95959.72
2023-03-06T19:12:53.019Z,95966.44
2023-03-06T19:14:57.991Z,95963.44
2023-03-06T19:17:00.901Z,95963.22
2023-03-06T19:19:04.010Z,95965.03
2023-03-06T19:21:11.229Z,95965.22
2023-03-06T19:23:14.101Z,95970.13
2023-03-06T19:25:17.551Z,95975.63
2023-03-06T19:27:20.466Z,95967.09
2023-03-06T19:29:23.203Z,95976.06
2023-03-06T19:31:28.967Z,95978.91
2023-03-06T19:33:31.864Z,95983.41
2023-03-06T19:35:36.301Z,95996.19
2023-03-06T19:37:39.565Z,95991.97
2023-03-06T19:39:44.899Z,95999.66
2023-03-06T19:41:48.583Z,96001.28
2023-03-06T19:43:53.661Z,95999.88
2023-03-06T19:45:56.753Z,96007.19
2023-03-06T19:48:04.596Z,96005.56
2023-03-06T19:50:08.747Z,96006.19
2023-03-06T19:52:11.510Z,96003.94
2023-03-06T19:54:14.799Z,96001.53
2023-03-06T19:56:20.317Z,95996.44
2023-03-06T19:58:23.123Z,96001.75
2023-03-06T20:00:26.210Z,96014.72
2023-03-06T20:02:29.422Z,96007.22
2023-03-06T20:04:34.905Z,96007.81
2023-03-06T20:06:38.938Z,96006.59
2023-03-06T20:08:42.362Z,96013.69
2023-03-06T20:10:45.511Z,96013.31
2023-03-06T20:12:48.990Z,96020.63
2023-03-06T20:14:55.006Z,96023.44
2023-03-06T20:16:58.172Z,96014.09
2023-03-06T20:19:02.084Z,96013.09
2023-03-06T20:21:07.265Z,96020.00
2023-03-06T20:23:10.183Z,96024.47
2023-03-06T20:25:13.441Z,96027.69
2023-03-06T20:27:16.290Z,96028.31
2023-03-06T20:29:19.124Z,96023.44
2023-03-06T20:31:24.282Z,96022.84
2023-03-06T20:33:27.764Z,96035.81
2023-03-06T20:35:30.709Z,96029.50
2023-03-06T20:37:34.913Z,96032.16
2023-03-06T20:39:38.244Z,96027.28
2023-03-06T20:41:41.542Z,96028.91
2023-03-06T20:43:44.839Z,96028.50
2023-03-06T20:45:57.537Z,96022.41
2023-03-06T20:48:03.282Z,96029.31
2023-03-06T20:50:07.062Z,96026.47
2023-03-06T20:52:10.494Z,96017.94
2023-03-06T20:54:16.740Z,96016.56
2023-03-06T20:56:22.327Z,96015.75
2023-03-06T20:58:28.417Z,96018.97
2023-03-06T21:00:31.175Z,96023.03
2023-03-06T21:02:33.964Z,96024.66
2023-03-06T21:04:40.830Z,96016.34
2023-03-06T21:06:46.431Z,96021.38
2023-03-06T21:08:49.514Z,96027.69
2023-03-06T21:10:53.669Z,96032.75
2023-03-06T21:12:56.660Z,96032.53
2023-03-06T21:14:59.918Z,96021.00
2023-03-06T21:17:02.766Z,96025.25
2023-03-06T21:19:06.117Z,96018.97
2023-03-06T21:21:10.571Z,96018.56
2023-03-06T21:23:13.348Z,96020.19
2023-03-06T21:25:16.204Z,96015.31
2023-03-06T21:27:20.435Z,96024.84
2023-03-06T21:29:23.439Z,96026.69
2023-03-06T21:31:28.535Z,96023.44
2023-03-06T21:33:31.861Z,96021.63
2023-03-06T21:35:38.146Z,96008.63
2023-03-06T21:37:40.910Z,96022.44
2023-03-06T21:39:44.040Z,96017.16
2023-03-06T21:41:47.021Z,96012.69
2023-03-06T21:43:53.906Z,96014.53
2023-03-06T21:45:59.305Z,96019.59
2023-03-06T21:48:02.233Z,96010.06
2023-03-06T21:50:05.588Z,96008.63
2023-03-06T21:52:08.468Z,96005.19
2023-03-06T21:54:12.938Z,95998.09
2023-03-06T21:56:18.102Z,95999.31
2023-03-06T21:58:21.445Z,95998.50
2023-03-06T22:00:25.800Z,95993.63
2023-03-06T22:02:29.428Z,95999.91
2023-03-06T22:04:32.645Z,95998.09
2023-03-06T22:06:36.361Z,95999.91
2023-03-06T22:08:39.451Z,95994.03
2023-03-06T22:10:42.747Z,95988.34
2023-03-06T22:12:46.862Z,95983.50
2023-03-06T22:14:49.737Z,95991.00
2023-03-06T22:16:54.166Z,95998.09
2023-03-06T22:18:57.608Z,95989.97
2023-03-06T22:21:07.639Z,95988.56
2023-03-06T22:23:10.801Z,95992.81
2023-03-06T22:25:14.619Z,95987.53
2023-03-06T22:27:17.917Z,95992.81
2023-03-06T22:29:20.690Z,95994.63
2023-03-06T22:31:25.319Z,95990.38
2023-03-06T22:33:29.701Z,95990.38
